Airfield :
LOGIN :

Register | Disclaimer

   EN    FR    IT 

 










Legend :    VFR   Marginal VFR   IFR   Intensive IFR   Very Intensive IFR
Visi :
Ceiling :
>= 8 km
>= 3000ft
5 to 8 km
1000 to 3000 ft
1500m to 5 km
500 to 1000 ft
800 to 1500m
200 to 500 ft
< 800m
< 200 ft
Symbols :   Thunderstorms  Fog  Heavy snow  Heavy precipitations  Wind > 20 kt
SIGMETs :     Misc.  Thunderstorms  Icing  Turbulence  Mountain Waves  Volcanic Ashes







- Airport Elevation : 1260 ft
- IATA code : LDE
- Download approach charts


LFBT - Tarbes / Ossun

CURRENT METAR :
  • 161730Z AUTO 29010KT 9999 FEW064/// SCT082/// ///CB 23/19 Q1017 BECMG BKN015

EXPIRED METARs :
  • 161700Z AUTO 29008KT 260V320 9999 SCT078/// BKN220/// ///TCU 24/19 Q1017 TEMPO BKN014 BKN040
  • 161630Z AUTO 30008KT 260V330 9999 BKN025 BKN033 BKN039 25/19 Q1017 TEMPO BKN014 BKN040
  • 161600Z AUTO 27008KT 240V300 9999 BKN026 BKN066 BKN200 25/19 Q1017 NOSIG
  • 161530Z AUTO 28008KT 240V300 9999 FEW024 25/19 Q1017 NOSIG
  • 161500Z AUTO 29008KT 260V330 9999 FEW024 25/20 Q1017 NOSIG
  • 161430Z AUTO 29008KT 260V320 9999 FEW023 25/20 Q1017 NOSIG

TAF TAF LFBT
Valid from the 16 at 18:00 until the 17 at 18:00 UTC


161700Z 1618/1718 30010KT 9999 SCT020
BECMG 1618/1620 BKN015
PROB30
TEMPO 1620/1707 -RA BKN014 BKN040
BECMG 1709/1710 4000 RA BKN010 OVC020
BECMG 1712/1713 9999 NSW BKN020
BECMG 1716/1718 SCT030
No reported NOTAMs for that airfield.



MET'MAP, your aeronautical weather chart ! - Copyright ORBIFLY December 2007 - Disclaimer

ORBIFLY MET'MAP TEAM :

Programming & Development : Alexandra Zaïnal
Concept & Development : Baudouin d'Aumeries
Co-Development & Prog : Marc-Olivier Méhu
Technical & hardware support : Manuel Goepfert

Contact : metmap@orbifly.com




SOURCES & CREDITS :

   NOAA